Time;durP1;ratioP1;P1;durP2;ratioP2;P2;SDS_P1;SDS_P2;PMS_P1;PMS_P2;Temp;Humidity;BMP_temperature;BMP_pressure;BME280_temperature;BME280_humidity;BME280_pressure;Samples;Min_cycle;Max_cycle;Signal;HPM_P1;HPM_P2
2023/05/14 00:01:45;;;;;;;7.60;5.82;;;12.30;99.90;;;;;;5143845;28;20320;-67
2023/05/14 00:04:19;;;;;;;7.20;6.43;;;12.30;99.90;;;;;;5133567;28;20046;-66
2023/05/14 00:06:50;;;;;;;7.93;5.95;;;12.30;99.90;;;;;;5143634;28;20293;-68
2023/05/14 00:09:21;;;;;;;9.65;7.00;;;12.40;99.90;;;;;;5162534;28;20311;-66
2023/05/14 00:11:53;;;;;;;9.93;7.22;;;12.40;99.90;;;;;;5122720;28;20175;-67
2023/05/14 00:14:26;;;;;;;7.63;5.80;;;12.40;99.90;;;;;;5142364;28;20031;-68
2023/05/14 00:16:58;;;;;;;8.07;7.03;;;12.40;99.90;;;;;;5122489;28;20618;-67
2023/05/14 00:19:29;;;;;;;8.23;5.88;;;12.30;99.90;;;;;;5126291;28;20268;-68
2023/05/14 00:22:02;;;;;;;7.85;5.60;;;12.30;99.90;;;;;;5150219;28;20030;-69
2023/05/14 00:24:34;;;;;;;8.23;5.57;;;12.20;99.90;;;;;;5144514;28;20038;-70
2023/05/14 00:27:08;;;;;;;7.72;5.60;;;12.00;99.90;;;;;;5144931;28;20037;-70
2023/05/14 00:29:40;;;;;;;6.65;5.45;;;12.10;99.90;;;;;;5160683;28;20046;-70
2023/05/14 00:32:11;;;;;;;8.73;6.18;;;12.00;99.90;;;;;;5139168;28;20050;-69
2023/05/14 00:34:45;;;;;;;6.82;5.68;;;12.00;99.90;;;;;;5159477;28;20026;-70
2023/05/14 00:37:17;;;;;;;7.60;5.95;;;12.00;99.90;;;;;;5127763;28;20358;-67
2023/05/14 00:39:48;;;;;;;6.38;5.05;;;12.00;99.90;;;;;;5159631;28;20030;-70
2023/05/14 00:42:22;;;;;;;9.32;5.15;;;12.00;99.90;;;;;;5157422;28;20030;-67
2023/05/14 00:44:56;;;;;;;6.43;4.60;;;12.00;99.90;;;;;;5140182;28;20038;-68
2023/05/14 00:47:30;;;;;;;7.72;6.10;;;12.00;99.90;;;;;;5137880;28;20362;-68
2023/05/14 00:50:03;;;;;;;8.52;5.22;;;12.00;99.90;;;;;;5138514;28;20448;-69
2023/05/14 00:52:37;;;;;;;8.63;5.80;;;11.90;99.90;;;;;;5127918;28;20034;-68
2023/05/14 00:55:11;;;;;;;8.50;6.25;;;11.90;99.90;;;;;;5128221;28;20042;-68
2023/05/14 00:57:43;;;;;;;5.45;4.65;;;11.90;99.90;;;;;;5160560;28;20030;-67
2023/05/14 01:00:16;;;;;;;9.15;5.57;;;11.90;99.90;;;;;;5139913;28;20030;-67
2023/05/14 01:02:51;;;;;;;7.55;4.75;;;11.90;99.90;;;;;;5229457;23;20055;-67
2023/05/14 01:05:30;;;;;;;8.32;5.05;;;11.90;99.90;;;;;;5205889;28;20056;-69
2023/05/14 01:08:22;;;;;;;6.97;5.00;;;11.90;99.90;;;;;;5203307;28;20033;-70
2023/05/14 01:11:12;;;;;;;6.22;4.65;;;11.90;99.90;;;;;;5214490;28;20037;-68
2023/05/14 01:14:00;;;;;;;6.15;4.97;;;12.00;99.90;;;;;;5200771;28;20045;-68
2023/05/14 01:16:36;;;;;;;8.73;4.90;;;12.00;99.90;;;;;;5181484;28;20222;-68
2023/05/14 01:19:34;;;;;;;5.30;4.63;;;11.90;99.90;;;;;;5182985;28;20039;-67
2023/05/14 01:22:05;;;;;;;6.10;4.88;;;11.80;99.90;;;;;;5215662;28;20056;-69
2023/05/14 01:24:40;;;;;;;6.10;4.63;;;11.80;99.90;;;;;;5221455;28;20029;-69
2023/05/14 01:27:47;;;;;;;6.07;5.22;;;11.80;99.90;;;;;;5203509;28;20040;-66
2023/05/14 01:30:39;;;;;;;6.85;4.95;;;11.80;99.90;;;;;;5172369;28;20534;-71
2023/05/14 01:33:17;;;;;;;5.20;4.55;;;11.80;99.90;;;;;;5217401;28;20033;-68
2023/05/14 01:35:50;;;;;;;12.18;5.78;;;11.80;99.90;;;;;;5186924;28;20028;-70
2023/05/14 01:38:26;;;;;;;6.45;4.93;;;11.90;99.90;;;;;;5200066;28;20041;-70
2023/05/14 01:41:01;;;;;;;7.85;5.22;;;11.90;99.90;;;;;;5179140;28;20036;-68
2023/05/14 01:43:34;;;;;;;6.72;4.72;;;11.90;99.90;;;;;;5217949;28;20497;-68
2023/05/14 01:46:09;;;;;;;5.90;4.97;;;12.00;99.90;;;;;;5209131;28;20233;-67
2023/05/14 01:48:42;;;;;;;;;;;12.00;99.90;;;;;;5222795;28;20041;-68
2023/05/14 01:51:14;;;;;;;8.50;5.07;;;12.10;99.90;;;;;;5216396;28;19901;-66
2023/05/14 01:53:47;;;;;;;5.65;4.10;;;12.10;99.90;;;;;;5219656;28;20620;-66
2023/05/14 01:56:22;;;;;;;6.82;5.32;;;12.10;99.90;;;;;;5215099;28;20426;-69
2023/05/14 01:58:59;;;;;;;6.72;5.00;;;12.10;99.90;;;;;;5201850;28;20128;-67
2023/05/14 02:01:33;;;;;;;6.65;5.05;;;11.90;99.90;;;;;;5199044;28;20047;-68
2023/05/14 02:04:04;;;;;;;6.28;5.28;;;11.90;99.90;;;;;;5203605;28;20053;-68
2023/05/14 02:06:36;;;;;;;6.75;5.32;;;11.90;99.90;;;;;;5198514;28;20041;-66
2023/05/14 02:09:07;;;;;;;6.38;5.22;;;11.90;99.90;;;;;;5204957;28;20045;-68
2023/05/14 02:11:38;;;;;;;7.00;5.28;;;11.80;99.90;;;;;;5216625;28;20060;-70
2023/05/14 02:14:14;;;;;;;5.60;4.82;;;11.80;99.90;;;;;;5220454;28;20029;-67
2023/05/14 02:16:45;;;;;;;7.38;5.45;;;11.80;99.90;;;;;;5219938;28;20037;-67
2023/05/14 02:19:16;;;;;;;6.57;5.18;;;11.80;99.90;;;;;;5221110;28;20029;-67
2023/05/14 02:21:50;;;;;;;7.35;5.10;;;11.60;99.90;;;;;;5187553;28;20051;-70
2023/05/14 02:24:22;;;;;;;7.22;5.55;;;11.50;99.90;;;;;;5203994;28;20047;-69
2023/05/14 02:26:56;;;;;;;5.88;4.55;;;11.40;99.90;;;;;;5201664;28;20031;-69
2023/05/14 02:29:30;;;;;;;7.50;5.13;;;11.40;99.90;;;;;;5202512;28;20041;-69
2023/05/14 02:32:01;;;;;;;8.75;6.15;;;11.40;99.90;;;;;;5202156;28;20037;-69
2023/05/14 02:34:33;;;;;;;5.75;4.72;;;11.40;99.90;;;;;;5220809;28;20458;-69
2023/05/14 02:37:05;;;;;;;6.82;4.50;;;11.50;99.90;;;;;;5202728;28;20260;-67
2023/05/14 02:39:36;;;;;;;5.90;4.10;;;11.50;99.90;;;;;;5215466;28;20029;-68
2023/05/14 02:42:07;;;;;;;6.07;4.10;;;11.50;99.90;;;;;;5201015;28;20044;-68
2023/05/14 02:44:39;;;;;;;5.47;4.38;;;11.60;99.90;;;;;;5199592;28;20044;-68
2023/05/14 02:47:10;;;;;;;8.00;4.63;;;11.60;99.90;;;;;;5203383;28;20053;-68
2023/05/14 02:49:41;;;;;;;5.10;4.25;;;11.70;99.90;;;;;;5209025;28;20053;-69
2023/05/14 02:52:14;;;;;;;6.70;4.32;;;11.70;99.90;;;;;;5212365;28;20033;-68
2023/05/14 02:54:46;;;;;;;6.43;4.63;;;11.70;99.90;;;;;;5174234;28;20537;-68
2023/05/14 02:57:20;;;;;;;6.95;5.35;;;11.70;99.90;;;;;;5202933;28;20039;-68
2023/05/14 02:59:51;;;;;;;6.78;4.80;;;11.70;99.90;;;;;;5203114;28;20025;-68
2023/05/14 03:02:23;;;;;;;6.38;4.80;;;11.80;99.90;;;;;;5219173;28;20442;-71
2023/05/14 03:04:54;;;;;;;5.75;4.03;;;11.80;99.90;;;;;;5196501;28;20055;-68
2023/05/14 03:07:28;;;;;;;6.22;4.38;;;11.80;99.90;;;;;;5231610;28;20036;-68
2023/05/14 03:09:59;;;;;;;6.95;4.90;;;11.80;99.90;;;;;;5260185;28;20021;-67
2023/05/14 03:12:33;;;;;;;5.63;5.13;;;11.70;99.90;;;;;;5222693;28;20036;-68
2023/05/14 03:15:05;;;;;;;5.70;4.22;;;11.70;99.90;;;;;;5222398;28;20110;-69
2023/05/14 03:17:41;;;;;;;6.07;4.40;;;11.70;99.90;;;;;;5225666;28;20042;-68
2023/05/14 03:20:12;;;;;;;6.18;5.57;;;11.70;99.90;;;;;;5223416;28;20032;-69
2023/05/14 03:22:44;;;;;;;4.13;3.72;;;11.70;99.90;;;;;;5226909;28;20231;-67
2023/05/14 03:25:16;;;;;;;8.60;4.95;;;11.70;99.90;;;;;;5226729;28;20040;-67
2023/05/14 03:27:50;;;;;;;4.97;4.22;;;11.70;99.90;;;;;;5226958;28;20468;-67
2023/05/14 03:30:27;;;;;;;7.22;4.82;;;11.70;99.90;;;;;;5242923;28;20412;-66
2023/05/14 03:32:58;;;;;;;5.20;4.68;;;11.70;99.90;;;;;;5223187;28;20032;-70
2023/05/14 03:35:30;;;;;;;5.85;4.65;;;11.70;99.90;;;;;;5210535;28;20036;-68
2023/05/14 03:38:01;;;;;;;6.05;4.18;;;11.70;99.90;;;;;;5243459;28;20393;-67
2023/05/14 03:40:35;;;;;;;5.25;4.05;;;11.70;99.90;;;;;;5226481;28;20464;-67
2023/05/14 03:43:10;;;;;;;5.07;4.45;;;11.70;99.90;;;;;;5227557;28;20051;-68
2023/05/14 03:45:43;;;;;;;5.85;4.72;;;11.70;99.90;;;;;;5226360;28;20047;-71
2023/05/14 03:48:17;;;;;;;7.25;4.45;;;11.60;99.90;;;;;;5228967;28;20329;-68
2023/05/14 03:50:54;;;;;;;4.75;4.30;;;11.60;99.90;;;;;;5224350;28;20032;-68
2023/05/14 03:53:25;;;;;;;4.78;3.72;;;11.70;99.90;;;;;;5225291;28;20036;-68
2023/05/14 03:55:57;;;;;;;6.72;4.40;;;11.80;99.90;;;;;;5227231;28;20024;-67
2023/05/14 03:58:28;;;;;;;4.20;3.80;;;11.80;99.90;;;;;;5227128;28;20081;-68
2023/05/14 04:01:04;;;;;;;5.43;4.32;;;11.80;99.90;;;;;;5204481;28;20032;-68
2023/05/14 04:03:35;;;;;;;5.50;5.00;;;11.80;99.90;;;;;;5221059;28;20037;-67
2023/05/14 04:06:11;;;;;;;6.68;5.07;;;11.80;99.90;;;;;;5230515;28;20049;-67
2023/05/14 04:08:43;;;;;;;6.25;5.32;;;11.80;99.90;;;;;;5211029;28;20107;-70
2023/05/14 04:11:14;;;;;;;6.63;4.70;;;11.90;99.90;;;;;;5220487;28;20052;-69
2023/05/14 04:13:45;;;;;;;6.00;4.80;;;11.90;99.90;;;;;;5215567;28;20048;-69
2023/05/14 04:16:20;;;;;;;6.65;4.57;;;11.90;99.90;;;;;;5223721;28;20264;-69
2023/05/14 04:18:52;;;;;;;6.72;5.28;;;12.00;99.90;;;;;;5242557;28;20028;-68
2023/05/14 04:21:26;;;;;;;6.82;4.80;;;11.90;99.90;;;;;;5243953;28;20419;-68
2023/05/14 04:23:58;;;;;;;6.80;5.03;;;11.80;99.90;;;;;;5226668;28;20336;-67
2023/05/14 04:26:34;;;;;;;6.50;5.72;;;11.70;99.90;;;;;;5209775;28;20036;-69
2023/05/14 04:29:05;;;;;;;7.43;5.45;;;11.60;99.90;;;;;;5225509;28;20032;-70
2023/05/14 04:31:39;;;;;;;6.90;5.05;;;11.40;99.90;;;;;;5224364;28;20635;-68
2023/05/14 04:34:11;;;;;;;4.30;3.88;;;11.30;99.90;;;;;;5226265;28;20249;-68
2023/05/14 04:36:47;;;;;;;5.47;4.47;;;11.40;99.90;;;;;;5225479;28;20527;-66
2023/05/14 04:39:19;;;;;;;5.97;5.38;;;11.40;99.90;;;;;;5225812;28;20503;-67
2023/05/14 04:41:53;;;;;;;6.32;3.95;;;11.40;99.90;;;;;;5221532;28;20033;-64
2023/05/14 04:44:25;;;;;;;6.50;4.55;;;11.40;99.90;;;;;;5208578;28;20407;-65
2023/05/14 04:46:56;;;;;;;5.80;4.88;;;11.40;99.90;;;;;;5222643;28;20059;-69
2023/05/14 04:49:36;;;;;;;4.88;4.38;;;11.40;99.90;;;;;;5244022;28;20434;-68
2023/05/14 04:52:08;;;;;;;6.28;5.32;;;11.50;99.90;;;;;;5219757;28;20029;-69
2023/05/14 04:54:39;;;;;;;6.72;5.18;;;11.40;99.90;;;;;;5188695;28;20037;-66
2023/05/14 04:57:11;;;;;;;4.65;4.18;;;11.40;99.90;;;;;;5208927;28;20379;-68
2023/05/14 04:59:45;;;;;;;5.82;4.55;;;11.40;99.90;;;;;;5220372;28;20041;-68
2023/05/14 05:02:17;;;;;;;4.90;3.97;;;11.40;99.90;;;;;;5229895;28;20693;-66
2023/05/14 05:04:51;;;;;;;6.78;4.95;;;11.50;99.90;;;;;;5235575;28;20048;-69
2023/05/14 05:07:22;;;;;;;;;;;11.40;99.90;;;;;;5227900;28;20058;-68
2023/05/14 05:09:53;;;;;;;5.70;3.85;;;11.40;99.90;;;;;;5234667;28;19948;-65
2023/05/14 05:12:29;;;;;;;5.30;3.95;;;11.40;99.90;;;;;;5222847;28;20027;-70
2023/05/14 05:15:04;;;;;;;5.05;3.95;;;11.30;99.90;;;;;;5221753;28;20029;-67
2023/05/14 05:17:37;;;;;;;5.50;4.13;;;11.30;99.90;;;;;;5219033;28;20029;-69
2023/05/14 05:20:09;;;;;;;5.60;4.93;;;11.30;99.90;;;;;;5215201;28;20530;-68
2023/05/14 05:22:44;;;;;;;4.32;3.95;;;11.30;99.90;;;;;;5224796;28;20051;-66
2023/05/14 05:25:21;;;;;;;4.53;4.13;;;11.30;99.90;;;;;;5239860;28;20017;-65
2023/05/14 05:27:52;;;;;;;5.32;4.50;;;11.30;99.90;;;;;;5220657;28;20036;-68
2023/05/14 05:30:26;;;;;;;4.80;3.83;;;11.30;99.90;;;;;;5231498;28;20032;-67
2023/05/14 05:32:57;;;;;;;4.15;3.75;;;11.30;99.90;;;;;;5241122;28;20044;-66
2023/05/14 05:35:32;;;;;;;4.10;3.60;;;11.40;99.90;;;;;;5240502;28;20039;-67
2023/05/14 05:38:06;;;;;;;4.18;3.78;;;11.40;99.90;;;;;;5224258;28;20043;-68
2023/05/14 05:40:41;;;;;;;4.10;3.65;;;11.40;99.90;;;;;;5220327;28;20024;-66
2023/05/14 05:43:14;;;;;;;5.28;4.22;;;11.40;99.90;;;;;;5243646;28;20233;-67
2023/05/14 05:45:46;;;;;;;5.45;4.03;;;11.50;99.90;;;;;;5227836;28;20645;-67
2023/05/14 05:48:20;;;;;;;5.25;4.60;;;11.50;99.90;;;;;;5224287;28;20313;-66
2023/05/14 05:50:52;;;;;;;4.97;4.47;;;11.50;99.90;;;;;;5242097;28;20028;-66
2023/05/14 05:53:23;;;;;;;5.30;4.63;;;11.50;99.90;;;;;;5224419;28;20575;-67
2023/05/14 05:55:54;;;;;;;4.88;4.40;;;11.50;99.90;;;;;;5258911;28;20099;-66
2023/05/14 05:58:25;;;;;;;7.00;4.45;;;11.50;99.90;;;;;;5241514;28;20343;-67
2023/05/14 06:01:00;;;;;;;4.75;4.25;;;11.60;99.90;;;;;;5225969;28;20041;-69
2023/05/14 06:03:31;;;;;;;5.60;4.13;;;11.70;99.90;;;;;;5234430;28;20492;-67
2023/05/14 06:06:05;;;;;;;5.30;4.13;;;11.60;99.90;;;;;;5210641;28;20282;-66
2023/05/14 06:08:37;;;;;;;;;;;11.60;99.90;;;;;;5224724;28;20345;-67
2023/05/14 06:11:08;;;;;;;4.38;3.97;;;11.50;99.90;;;;;;5239361;28;19976;-68
2023/05/14 06:13:39;;;;;;;5.57;4.80;;;11.40;99.90;;;;;;5228549;28;20255;-70
2023/05/14 06:16:11;;;;;;;5.50;4.35;;;11.40;99.90;;;;;;5234545;28;20059;-68
2023/05/14 06:18:45;;;;;;;5.25;4.25;;;11.40;99.90;;;;;;5240176;28;20039;-68
2023/05/14 06:21:17;;;;;;;4.75;4.15;;;11.20;99.90;;;;;;5223633;28;20051;-67
2023/05/14 06:23:51;;;;;;;4.38;3.72;;;11.10;99.90;;;;;;5224047;28;20032;-67
2023/05/14 06:26:22;;;;;;;5.80;4.80;;;11.00;99.90;;;;;;5204028;28;20037;-67
2023/05/14 06:28:56;;;;;;;5.30;4.68;;;10.90;99.90;;;;;;5205166;28;20036;-65
2023/05/14 06:31:27;;;;;;;6.07;4.88;;;10.80;99.90;;;;;;5221051;28;20260;-68
2023/05/14 06:34:01;;;;;;;5.28;4.63;;;10.90;99.90;;;;;;5241222;28;20034;-68
2023/05/14 06:36:33;;;;;;;5.50;4.80;;;10.90;99.90;;;;;;5223940;28;20128;-69
2023/05/14 06:39:04;;;;;;;5.82;4.28;;;10.90;99.90;;;;;;5206752;28;20036;-68
2023/05/14 06:41:35;;;;;;;5.47;4.82;;;10.80;99.90;;;;;;5240703;28;20028;-68
2023/05/14 06:44:07;;;;;;;4.70;4.13;;;10.70;99.90;;;;;;5207115;28;20040;-68
2023/05/14 06:46:38;;;;;;;6.10;5.15;;;10.80;99.90;;;;;;5220365;28;20047;-67
2023/05/14 06:49:12;;;;;;;5.53;4.90;;;10.80;99.90;;;;;;5221334;28;20041;-69
2023/05/14 06:51:47;;;;;;;6.22;5.13;;;10.80;99.90;;;;;;5208501;28;20032;-69
2023/05/14 06:54:19;;;;;;;7.25;4.93;;;10.80;99.90;;;;;;5245086;28;20416;-69
2023/05/14 06:56:51;;;;;;;5.85;5.22;;;10.80;99.90;;;;;;5242730;28;20029;-66
2023/05/14 06:59:25;;;;;;;8.88;4.57;;;10.70;99.90;;;;;;5206641;28;20304;-67
2023/05/14 07:01:58;;;;;;;5.20;4.28;;;10.60;99.90;;;;;;5214131;28;20067;-67
2023/05/14 07:04:30;;;;;;;6.13;4.43;;;10.60;99.90;;;;;;5233418;28;20057;-67
2023/05/14 07:07:01;;;;;;;6.18;4.90;;;10.60;99.90;;;;;;5231787;28;20273;-68
2023/05/14 07:09:32;;;;;;;4.78;4.18;;;10.60;99.90;;;;;;5237709;28;20057;-69
2023/05/14 07:12:04;;;;;;;4.43;3.97;;;10.50;99.90;;;;;;5243331;28;20030;-68
2023/05/14 07:14:36;;;;;;;6.15;4.25;;;10.50;99.90;;;;;;5227145;28;20055;-70
2023/05/14 07:17:08;;;;;;;5.45;4.70;;;10.50;99.90;;;;;;5238945;28;20040;-70
2023/05/14 07:19:46;;;;;;;4.38;3.97;;;10.50;99.90;;;;;;5243135;28;20341;-68
2023/05/14 07:22:17;;;;;;;6.95;4.72;;;10.40;99.90;;;;;;5210997;28;20133;-69
2023/05/14 07:24:50;;;;;;;3.95;3.55;;;10.40;99.90;;;;;;5243903;28;20036;-66
2023/05/14 07:27:21;;;;;;;5.00;4.50;;;10.40;99.90;;;;;;5230866;28;20050;-68
2023/05/14 07:29:53;;;;;;;5.97;4.38;;;10.40;99.90;;;;;;5249283;28;20043;-69
2023/05/14 07:32:24;;;;;;;5.30;4.22;;;10.50;99.90;;;;;;5242624;28;20032;-69
2023/05/14 07:34:58;;;;;;;4.13;3.70;;;10.50;99.90;;;;;;5243122;28;20048;-68
2023/05/14 07:37:30;;;;;;;5.87;4.20;;;10.50;99.90;;;;;;5239570;28;20028;-69
2023/05/14 07:40:01;;;;;;;3.80;3.35;;;10.50;99.90;;;;;;5237698;28;20287;-70
2023/05/14 07:42:33;;;;;;;4.32;3.72;;;10.50;99.90;;;;;;5243264;28;20237;-67
2023/05/14 07:45:08;;;;;;;5.35;4.28;;;10.50;99.90;;;;;;5259398;28;20035;-70
2023/05/14 07:47:40;;;;;;;5.32;3.47;;;10.50;99.90;;;;;;5238644;28;20040;-68
2023/05/14 07:50:14;;;;;;;4.43;3.80;;;10.50;99.90;;;;;;5232247;28;20031;-66
2023/05/14 07:52:45;;;;;;;4.30;3.60;;;10.50;99.90;;;;;;5259882;28;20037;-68
2023/05/14 07:55:16;;;;;;;4.40;3.75;;;10.40;99.90;;;;;;5234914;28;20052;-70
2023/05/14 07:57:48;;;;;;;5.50;3.90;;;10.40;99.90;;;;;;5217651;28;20032;-71
2023/05/14 08:00:22;;;;;;;5.80;4.05;;;10.30;99.90;;;;;;5222715;28;20028;-70
2023/05/14 08:02:54;;;;;;;5.35;3.92;;;10.30;99.90;;;;;;5223973;28;20043;-72
2023/05/14 08:05:30;;;;;;;4.00;3.60;;;10.30;99.90;;;;;;5235198;28;20048;-71
2023/05/14 08:08:01;;;;;;;8.68;3.83;;;10.30;99.90;;;;;;5224556;28;20032;-69
2023/05/14 08:10:32;;;;;;;4.03;3.13;;;10.20;99.90;;;;;;5243563;28;20035;-71
2023/05/14 08:13:06;;;;;;;4.72;3.58;;;10.20;99.90;;;;;;5244364;28;20154;-69
2023/05/14 08:15:38;;;;;;;3.83;3.17;;;10.20;99.90;;;;;;5241429;28;20028;-66
2023/05/14 08:18:09;;;;;;;4.82;4.15;;;10.20;99.90;;;;;;5236980;28;20041;-67
2023/05/14 08:20:41;;;;;;;4.63;3.53;;;10.20;99.90;;;;;;5224707;28;20598;-71
2023/05/14 08:23:15;;;;;;;3.22;2.92;;;10.10;99.90;;;;;;5238807;28;20041;-68
2023/05/14 08:25:51;;;;;;;3.78;3.42;;;10.10;99.90;;;;;;5242763;28;20255;-69
2023/05/14 08:28:27;;;;;;;82.20;61.58;;;10.20;99.90;;;;;;5212079;28;20037;-67
2023/05/14 08:31:06;;;;;;;107.45;88.07;;;10.20;99.90;;;;;;5247414;28;20048;-70
2023/05/14 08:33:37;;;;;;;499.15;266.05;;;10.30;99.90;;;;;;5243176;28;20048;-67
2023/05/14 08:36:11;;;;;;;214.90;126.85;;;10.30;99.90;;;;;;5254417;28;20439;-67
2023/05/14 08:38:44;;;;;;;1293.30;634.10;;;10.20;99.90;;;;;;5237371;28;20027;-72
2023/05/14 08:41:16;;;;;;;17.98;13.18;;;10.30;99.90;;;;;;5209290;28;20074;-68
2023/05/14 08:44:02;;;;;;;35.15;28.27;;;10.30;99.90;;;;;;5224442;28;20046;-68
2023/05/14 08:46:39;;;;;;;64.85;48.28;;;10.40;99.90;;;;;;5239684;28;20059;-71
2023/05/14 08:49:18;;;;;;;45.22;36.08;;;10.50;99.90;;;;;;5240603;28;20325;-70
2023/05/14 08:51:52;;;;;;;79.50;57.40;;;10.50;99.90;;;;;;5226367;28;20032;-70
2023/05/14 08:54:28;;;;;;;89.65;64.03;;;10.60;99.90;;;;;;5222602;28;20045;-71
2023/05/14 08:57:01;;;;;;;58.03;42.80;;;10.50;99.90;;;;;;5239318;28;20033;-70
2023/05/14 08:59:42;;;;;;;11.63;9.50;;;10.40;99.90;;;;;;5239308;28;20041;-73
2023/05/14 09:02:19;;;;;;;43.50;38.88;;;10.40;99.90;;;;;;5220694;28;20032;-72
2023/05/14 09:05:00;;;;;;;17.73;15.85;;;10.40;99.90;;;;;;5221114;28;20059;-69
2023/05/14 09:07:32;;;;;;;21.67;19.52;;;10.40;99.90;;;;;;5239857;28;20046;-70
2023/05/14 09:10:04;;;;;;;17.23;15.40;;;10.30;99.90;;;;;;5239852;28;20024;-72
2023/05/14 09:12:37;;;;;;;14.10;11.77;;;10.20;99.90;;;;;;5223540;28;20036;-70
2023/05/14 09:15:08;;;;;;;44.55;39.88;;;10.30;99.90;;;;;;5230162;28;20053;-73
2023/05/14 09:17:40;;;;;;;21.73;18.58;;;10.30;99.90;;;;;;5235386;28;20029;-73
2023/05/14 09:20:17;;;;;;;11.45;10.20;;;10.30;99.90;;;;;;5219769;28;20040;-69
2023/05/14 09:22:53;;;;;;;7.50;5.72;;;10.40;99.90;;;;;;5239553;28;20039;-71
2023/05/14 09:25:31;;;;;;;5.95;4.00;;;10.50;99.90;;;;;;5236320;28;20039;-71
2023/05/14 09:28:07;;;;;;;4.07;3.67;;;10.50;99.90;;;;;;5240976;28;20027;-71
2023/05/14 09:30:38;;;;;;;5.75;4.35;;;10.60;99.90;;;;;;5225536;28;20029;-70
2023/05/14 09:33:09;;;;;;;6.35;4.90;;;10.60;99.90;;;;;;5229478;28;20050;-72
2023/05/14 09:35:42;;;;;;;6.18;4.50;;;10.50;99.90;;;;;;5223899;28;20364;-69
2023/05/14 09:38:14;;;;;;;180.20;105.88;;;10.40;99.90;;;;;;5237883;28;20028;-70
2023/05/14 09:40:49;;;;;;;19.15;13.82;;;10.40;99.90;;;;;;5233640;28;20040;-71
2023/05/14 09:43:21;;;;;;;81.35;66.60;;;10.40;99.90;;;;;;5223996;28;20040;-71
2023/05/14 09:45:52;;;;;;;81.85;52.22;;;10.40;99.90;;;;;;5216570;28;20827;-71
2023/05/14 09:48:24;;;;;;;137.13;99.47;;;10.50;99.90;;;;;;5238614;28;20191;-70
2023/05/14 09:50:58;;;;;;;122.05;81.30;;;10.50;99.90;;;;;;5239065;28;20036;-72
2023/05/14 09:53:31;;;;;;;25.08;18.83;;;10.60;99.90;;;;;;5233733;28;20051;-74
2023/05/14 09:56:02;;;;;;;27.75;21.10;;;10.50;99.90;;;;;;5227603;28;20363;-74
2023/05/14 09:58:34;;;;;;;31.08;24.20;;;10.60;99.90;;;;;;5241810;28;20229;-72
2023/05/14 10:01:08;;;;;;;8.20;7.38;;;10.70;99.90;;;;;;5240487;28;20030;-70
2023/05/14 10:03:42;;;;;;;74.20;51.40;;;10.70;99.90;;;;;;5214267;28;20041;-71
2023/05/14 10:06:18;;;;;;;9.60;7.78;;;10.70;99.90;;;;;;5241029;28;20048;-72
2023/05/14 10:08:55;;;;;;;27.23;19.73;;;10.80;99.90;;;;;;5226266;28;20028;-74
2023/05/14 10:11:30;;;;;;;42.25;29.48;;;10.80;99.90;;;;;;5254989;28;20021;-70
2023/05/14 10:14:23;;;;;;;33.75;29.55;;;10.80;99.90;;;;;;5230697;28;20043;-73
2023/05/14 10:16:58;;;;;;;15.18;10.60;;;10.90;99.90;;;;;;5220761;28;20032;-72
2023/05/14 10:19:34;;;;;;;7.20;6.43;;;11.00;99.90;;;;;;5256643;28;20028;-72
2023/05/14 10:22:10;;;;;;;29.55;23.80;;;10.90;99.90;;;;;;5223226;28;20043;-71
2023/05/14 10:24:49;;;;;;;19.23;14.95;;;10.90;99.90;;;;;;5220423;28;20872;-71
2023/05/14 10:27:21;;;;;;;23.30;19.02;;;10.80;99.90;;;;;;5206398;28;20040;-72
2023/05/14 10:29:54;;;;;;;22.88;16.88;;;10.70;99.90;;;;;;5239963;28;20194;-71
2023/05/14 10:32:26;;;;;;;11.00;9.90;;;10.70;99.90;;;;;;5237351;28;20039;-71
2023/05/14 10:34:57;;;;;;;6.38;4.85;;;10.70;99.90;;;;;;5239809;28;20036;-68
2023/05/14 10:37:29;;;;;;;7.00;5.53;;;10.60;99.90;;;;;;5236772;28;20031;-71
2023/05/14 10:40:05;;;;;;;19.13;16.35;;;10.60;99.90;;;;;;5220250;28;20032;-71
2023/05/14 10:42:39;;;;;;;24.63;20.13;;;10.60;99.90;;;;;;5236987;28;20024;-71
2023/05/14 10:45:12;;;;;;;8.25;6.47;;;10.60;99.90;;;;;;5212466;28;20044;-72
2023/05/14 10:47:47;;;;;;;5.28;4.57;;;10.70;99.90;;;;;;5259723;28;20038;-72
2023/05/14 10:50:22;;;;;;;7.07;5.88;;;10.80;99.90;;;;;;5236471;28;20028;-73
2023/05/14 10:52:54;;;;;;;16.27;12.77;;;11.00;99.90;;;;;;5218381;28;20340;-72
2023/05/14 10:55:26;;;;;;;47.95;37.35;;;10.90;99.90;;;;;;5234996;28;20056;-69
2023/05/14 10:58:00;;;;;;;6.90;6.00;;;10.80;99.90;;;;;;5221226;28;20028;-73
2023/05/14 11:00:40;;;;;;;7.53;6.70;;;10.80;99.90;;;;;;5245840;28;20028;-72
2023/05/14 11:03:15;;;;;;;7.57;5.70;;;10.80;99.90;;;;;;5239452;28;20046;-73
2023/05/14 11:05:47;;;;;;;19.80;16.00;;;11.00;99.90;;;;;;5206768;28;20091;-74
2023/05/14 11:08:20;;;;;;;7.88;6.50;;;11.00;99.90;;;;;;5253136;28;20038;-72
2023/05/14 11:10:53;;;;;;;8.38;6.80;;;11.30;99.90;;;;;;5239934;28;20023;-71
2023/05/14 11:13:25;;;;;;;12.40;9.68;;;11.40;99.90;;;;;;5233353;28;20037;-70
2023/05/14 11:15:59;;;;;;;836.53;590.40;;;11.50;99.90;;;;;;5222864;28;20115;-74
2023/05/14 11:18:35;;;;;;;437.92;347.88;;;11.50;99.90;;;;;;5203471;28;20043;-74
2023/05/14 11:21:06;;;;;;;87.35;60.53;;;11.30;99.90;;;;;;5219483;28;20280;-71
2023/05/14 11:23:45;;;;;;;302.52;204.93;;;11.20;99.90;;;;;;5219692;28;20044;-71
2023/05/14 11:26:18;;;;;;;55.75;41.38;;;11.30;99.90;;;;;;5225137;28;20032;-73
2023/05/14 11:28:49;;;;;;;96.40;79.65;;;11.40;99.90;;;;;;5239961;28;20036;-69
2023/05/14 11:31:22;;;;;;;18.98;17.00;;;11.50;99.90;;;;;;5236570;28;20031;-75
2023/05/14 11:33:54;;;;;;;59.08;53.80;;;11.70;99.90;;;;;;5233547;28;20250;-73
2023/05/14 11:36:26;;;;;;;11.10;9.85;;;11.60;99.90;;;;;;5218228;28;20036;-70
2023/05/14 11:38:57;;;;;;;16.90;15.10;;;11.70;99.90;;;;;;5238135;28;20042;-70
2023/05/14 11:41:32;;;;;;;8.13;6.57;;;11.80;99.90;;;;;;5223816;28;20306;-72
2023/05/14 11:44:05;;;;;;;20.02;18.15;;;11.70;99.90;;;;;;5255576;28;20037;-73
2023/05/14 11:46:37;;;;;;;12.43;11.18;;;11.80;99.90;;;;;;5209989;28;20033;-73
2023/05/14 11:49:09;;;;;;;13.15;11.07;;;12.00;99.90;;;;;;5222435;28;20036;-72
2023/05/14 11:51:46;;;;;;;7.93;6.72;;;11.90;99.90;;;;;;5239134;28;20039;-74
2023/05/14 11:54:17;;;;;;;7.60;6.68;;;11.90;99.90;;;;;;5223817;28;20048;-72
2023/05/14 11:56:50;;;;;;;11.43;8.27;;;12.00;99.90;;;;;;5241394;28;20337;-74
2023/05/14 11:59:32;;;;;;;7.70;6.47;;;12.10;99.90;;;;;;5221249;28;20033;-73
2023/05/14 12:02:11;;;;;;;6.97;5.95;;;12.10;99.90;;;;;;5218480;28;20044;-72
2023/05/14 12:04:50;;;;;;;7.75;6.10;;;12.20;99.90;;;;;;5210735;28;20264;-70
2023/05/14 12:07:22;;;;;;;16.60;14.23;;;12.00;99.90;;;;;;5223859;28;20044;-69
2023/05/14 12:09:53;;;;;;;98.75;75.72;;;11.80;99.90;;;;;;5241984;28;20039;-75
2023/05/14 12:12:34;;;;;;;35.72;32.40;;;11.60;99.90;;;;;;5234705;28;20038;-71
2023/05/14 12:15:13;;;;;;;19.27;17.38;;;11.60;99.90;;;;;;5201068;28;20535;-75
2023/05/14 12:17:50;;;;;;;49.35;44.05;;;11.60;99.90;;;;;;5242420;28;20021;-73
2023/05/14 12:20:25;;;;;;;63.83;53.38;;;11.50;99.90;;;;;;5236158;28;20028;-70
2023/05/14 12:22:56;;;;;;;;;;;11.50;99.90;;;;;;5217739;28;20541;-71
2023/05/14 12:25:28;;;;;;;68.88;55.90;;;11.40;99.90;;;;;;5239497;28;20363;-71
2023/05/14 12:28:03;;;;;;;166.23;130.27;;;11.40;99.90;;;;;;5242165;28;20038;-71
2023/05/14 12:30:37;;;;;;;149.90;114.35;;;11.40;99.90;;;;;;5235100;28;20028;-74
2023/05/14 12:33:15;;;;;;;33.85;23.98;;;11.40;99.90;;;;;;5213457;28;20063;-71
2023/05/14 12:35:47;;;;;;;305.33;229.82;;;11.50;99.90;;;;;;5234676;28;20050;-72
2023/05/14 12:38:18;;;;;;;58.13;45.65;;;11.50;99.90;;;;;;5235178;28;20066;-74
2023/05/14 12:40:50;;;;;;;49.58;37.75;;;11.60;99.90;;;;;;5238258;28;20043;-72
2023/05/14 12:43:23;;;;;;;27.27;22.63;;;11.70;99.90;;;;;;5226428;28;20028;-72
2023/05/14 12:45:57;;;;;;;28.00;24.52;;;11.60;99.90;;;;;;5207428;28;20028;-70
2023/05/14 12:48:30;;;;;;;38.03;31.05;;;11.60;99.90;;;;;;5239030;28;20028;-72
2023/05/14 12:51:02;;;;;;;18.75;15.68;;;11.60;99.90;;;;;;5240321;28;20035;-72
2023/05/14 12:53:39;;;;;;;18.17;12.40;;;11.50;99.90;;;;;;5227691;28;20039;-69
2023/05/14 12:56:10;;;;;;;24.98;16.13;;;11.50;99.90;;;;;;5237189;28;20044;-72
2023/05/14 12:58:42;;;;;;;13.13;11.48;;;11.50;99.90;;;;;;5221683;28;20036;-71
2023/05/14 13:01:13;;;;;;;9.73;8.05;;;11.50;99.90;;;;;;5217750;28;20044;-70
2023/05/14 13:03:46;;;;;;;9.23;7.25;;;11.50;99.90;;;;;;5239887;28;20034;-74
2023/05/14 13:06:26;;;;;;;8.68;7.05;;;11.50;99.90;;;;;;5201106;28;20063;-74
2023/05/14 13:09:01;;;;;;;12.32;9.30;;;11.70;99.90;;;;;;5227722;28;20519;-73
2023/05/14 13:11:32;;;;;;;9.10;6.95;;;11.70;99.90;;;;;;5253314;28;20312;-72
2023/05/14 13:14:10;;;;;;;10.90;7.78;;;11.70;99.90;;;;;;5223220;28;20051;-76
2023/05/14 13:16:41;;;;;;;14.25;9.30;;;11.60;99.90;;;;;;5196386;28;20038;-72